To NAV CANADA Home Page Login to a new session Search on AWWS site Feedback and Comments Disclaimer Vers la page française équivalente Tips FAQ What's new on the site To the Forecasts and Observations / NOTAM section To "File a Flight Plan" website Publications and other links Update of the User's profile FIC Telephone Numbers My Weather Data Folder Route Weather Data Regional Weather Data Local Weather Data To the Forecasts and Observations / NOTAM section
Request Generated 01/21/2017 at 02:07:43 UTC . Weather information available at that time is displayed.

METAR/TAF

WINDSOR/ON    

METAR CYQG 210200Z 23006KT 3SM -RA BR FEW001 OVC016 04/04 A2974 RMK
SC1SC7 SLP077=
METAR CYQG 210100Z 22007KT 3SM -RA BR FEW001 OVC016 04/04 A2974 RMK
ST2SC6 SLP078=
SPECI CYQG 210045Z 22006KT 3SM -RA BR SCT001 OVC017 04/04 A2973 RMK
ST4SC4 SLP075=
METAR CYQG 210000Z CCA 22005KT 1 3/4SM -RA BR OVC003 04/04 A2972 RMK
ST8 SLP073=
METAR CYQG 210000Z 22005KT 1 3/4SM RASG OVC003 04/04 A2972 RMK ST8
SLP073=

TAF AMD CYQG 210107Z 2101/2124 22007KT 6SM BR OVC015 TEMPO 2101/2105
11/2SM -RA -DZ BR OVC002 PROB30 2101/2105 1/4SM FG
FM210500 14006KT 6SM BR OVC012 TEMPO 2105/2115 2SM -DZ BR OVC006
PROB30 2108/2112 1SM BR OVC005
FM211800 20010KT P6SM SCT008 OVC012
RMK NXT FCST BY 210600Z=
Your time UTC time
Weather data provided by Environment Canada and NAV CANADA